createdAt,value
2018-05-15T00:01:32.504Z,2.57
2018-05-15T00:04:12.979Z,2.50
2018-05-15T00:06:41.909Z,2.60
2018-05-15T00:09:18.336Z,2.57
2018-05-15T00:11:49.101Z,3.70
2018-05-15T00:14:24.045Z,3.07
2018-05-15T00:16:53.648Z,4.03
2018-05-15T00:19:23.686Z,2.47
2018-05-15T00:21:54.665Z,2.83
2018-05-15T00:24:32.595Z,2.00
2018-05-15T00:27:09.610Z,2.70
2018-05-15T00:29:40.006Z,2.33
2018-05-15T00:32:19.240Z,3.90
2018-05-15T00:34:54.189Z,3.43
2018-05-15T00:37:33.043Z,2.87
2018-05-15T00:40:04.765Z,1.97
2018-05-15T00:42:35.843Z,3.03
2018-05-15T00:45:07.072Z,2.00
2018-05-15T00:47:40.331Z,2.33
2018-05-15T00:50:10.479Z,2.97
2018-05-15T00:52:40.386Z,2.43
2018-05-15T00:55:17.759Z,4.80
2018-05-15T00:57:46.844Z,3.30
2018-05-15T01:00:20.732Z,3.73
2018-05-15T01:02:49.660Z,2.87
2018-05-15T01:05:20.696Z,2.90
2018-05-15T01:07:49.625Z,3.87
2018-05-15T01:10:23.567Z,3.23
2018-05-15T01:12:53.234Z,2.87
2018-05-15T01:15:23.836Z,2.80
2018-05-15T01:17:52.767Z,2.70
2018-05-15T01:20:22.831Z,3.27
2018-05-15T01:22:55.450Z,2.43
2018-05-15T01:25:27.488Z,2.40
2018-05-15T01:28:01.923Z,2.57
2018-05-15T01:30:31.815Z,2.40
2018-05-15T01:33:02.368Z,2.80
2018-05-15T01:35:32.998Z,2.50
2018-05-15T01:38:07.116Z,2.80
2018-05-15T01:40:36.070Z,3.03
2018-05-15T01:43:10.782Z,3.50
2018-05-15T01:45:40.615Z,2.60
2018-05-15T01:48:12.568Z,6.50
2018-05-15T01:50:42.652Z,4.47
2018-05-15T01:53:18.770Z,3.13
2018-05-15T01:55:50.695Z,2.40
2018-05-15T01:58:24.240Z,4.00
2018-05-15T02:01:08.464Z,2.50
2018-05-15T02:03:37.594Z,3.27
2018-05-15T02:06:12.416Z,2.57
2018-05-15T02:08:47.638Z,2.60
2018-05-15T02:11:18.048Z,4.10
2018-05-15T02:14:12.583Z,3.33
2018-05-15T02:16:49.283Z,4.60
2018-05-15T02:19:18.870Z,2.43
2018-05-15T02:21:56.135Z,3.43
2018-05-15T02:24:31.520Z,2.97
2018-05-15T02:27:14.074Z,4.07
2018-05-15T02:29:49.238Z,2.70
2018-05-15T02:32:25.758Z,3.70
2018-05-15T02:34:55.519Z,2.80
2018-05-15T02:37:28.600Z,2.50
2018-05-15T02:39:58.282Z,2.80
2018-05-15T02:42:27.530Z,2.80
2018-05-15T02:44:58.005Z,2.30
2018-05-15T02:47:27.243Z,2.80
2018-05-15T02:49:56.913Z,3.33
2018-05-15T02:52:26.321Z,4.03
2018-05-15T02:54:55.835Z,2.70
2018-05-15T02:57:25.220Z,4.23
2018-05-15T02:59:55.311Z,2.63
2018-05-15T03:02:29.343Z,2.90
2018-05-15T03:04:58.289Z,2.73
2018-05-15T03:07:30.036Z,2.50
2018-05-15T03:10:09.342Z,3.53
2018-05-15T03:12:39.522Z,2.90
2018-05-15T03:15:08.492Z,2.80
2018-05-15T03:17:37.560Z,2.73
2018-05-15T03:20:06.913Z,3.00
2018-05-15T03:22:35.818Z,4.47
2018-05-15T03:25:07.153Z,3.70
2018-05-15T03:27:40.746Z,3.60
2018-05-15T03:30:10.495Z,2.87
2018-05-15T03:32:48.871Z,3.00
2018-05-15T03:35:24.555Z,2.47
2018-05-15T03:37:56.555Z,2.57
2018-05-15T03:40:27.402Z,3.27
2018-05-15T03:42:58.160Z,3.00
2018-05-15T03:45:27.159Z,2.87
2018-05-15T03:47:56.106Z,3.43
2018-05-15T03:50:25.054Z,3.67
2018-05-15T03:52:54.570Z,4.20
2018-05-15T03:55:24.320Z,3.27
2018-05-15T03:57:54.935Z,2.80
2018-05-15T04:00:30.599Z,3.23
2018-05-15T04:03:07.556Z,2.77
2018-05-15T04:05:44.741Z,2.80
2018-05-15T04:08:15.476Z,3.07
2018-05-15T04:10:45.605Z,3.57
2018-05-15T04:13:15.246Z,3.10
2018-05-15T04:15:44.788Z,3.10
2018-05-15T04:18:13.870Z,3.33
2018-05-15T04:20:46.651Z,3.13
2018-05-15T04:23:16.008Z,3.13
2018-05-15T04:25:45.026Z,3.50
2018-05-15T04:28:14.514Z,3.33
2018-05-15T04:30:44.766Z,3.03
2018-05-15T04:33:15.991Z,4.27
2018-05-15T04:35:51.644Z,3.00
2018-05-15T04:38:24.178Z,3.20
2018-05-15T04:40:57.413Z,5.17
2018-05-15T04:43:34.385Z,3.40
2018-05-15T04:46:03.990Z,2.80
2018-05-15T04:48:37.006Z,3.00
2018-05-15T04:51:06.700Z,3.63
2018-05-15T04:53:36.396Z,3.17
2018-05-15T04:56:11.423Z,2.70
2018-05-15T04:58:44.447Z,3.50
2018-05-15T05:01:23.106Z,3.40
2018-05-15T05:03:54.207Z,3.57
2018-05-15T05:06:31.561Z,2.97
2018-05-15T05:09:01.090Z,4.73
2018-05-15T05:11:32.308Z,2.60
2018-05-15T05:14:02.511Z,3.27
2018-05-15T05:16:34.348Z,3.43
2018-05-15T05:19:04.971Z,4.60
2018-05-15T05:21:35.775Z,3.00
2018-05-15T05:24:05.586Z,3.27
2018-05-15T05:26:37.753Z,2.63
2018-05-15T05:29:10.770Z,2.70
2018-05-15T05:32:00.032Z,3.03
2018-05-15T05:34:29.404Z,2.90
2018-05-15T05:36:58.360Z,3.23
2018-05-15T05:39:29.571Z,2.90
2018-05-15T05:41:59.004Z,2.73
2018-05-15T05:44:29.647Z,2.73
2018-05-15T05:46:59.318Z,2.73
2018-05-15T05:49:49.999Z,3.23
2018-05-15T05:52:24.783Z,2.63
2018-05-15T05:55:12.719Z,3.40
2018-05-15T05:57:42.159Z,3.00
2018-05-15T06:00:22.412Z,3.07
2018-05-15T06:02:52.901Z,2.93
2018-05-15T06:05:23.164Z,3.27
2018-05-15T06:07:55.747Z,3.13
2018-05-15T06:10:33.631Z,2.90
2018-05-15T06:13:03.119Z,3.23
2018-05-15T06:15:32.060Z,4.07
2018-05-15T06:18:06.034Z,2.93
2018-05-15T06:20:40.617Z,3.90
2018-05-15T06:23:13.516Z,3.00
2018-05-15T06:25:43.315Z,2.87
2018-05-15T06:28:14.451Z,3.20
2018-05-15T06:30:52.295Z,2.70
2018-05-15T06:33:22.438Z,2.40
2018-05-15T06:35:53.562Z,2.63
2018-05-15T06:38:22.508Z,2.50
2018-05-15T06:41:02.928Z,2.93
2018-05-15T06:43:32.061Z,4.23
2018-05-15T06:46:02.935Z,2.47
2018-05-15T06:48:33.104Z,2.53
2018-05-15T06:51:03.312Z,4.60
2018-05-15T06:53:33.140Z,3.23
2018-05-15T06:56:03.220Z,2.60
2018-05-15T06:58:38.023Z,3.23
2018-05-15T07:01:10.973Z,2.70
2018-05-15T07:03:46.023Z,4.77
2018-05-15T07:06:18.964Z,3.07
2018-05-15T07:08:55.613Z,4.57
2018-05-15T07:11:29.498Z,2.40
2018-05-15T07:14:04.817Z,4.77
2018-05-15T07:16:49.757Z,2.67
2018-05-15T07:19:20.661Z,2.80
2018-05-15T07:21:50.916Z,3.77
2018-05-15T07:24:27.975Z,2.40
2018-05-15T07:26:57.216Z,2.37
2018-05-15T07:29:27.207Z,3.53
2018-05-15T07:31:57.930Z,2.33
2018-05-15T07:34:27.969Z,2.73
2018-05-15T07:37:07.325Z,2.23
2018-05-15T07:39:37.140Z,2.67
2018-05-15T07:42:15.778Z,4.97
2018-05-15T07:44:46.224Z,2.27
2018-05-15T07:47:17.821Z,2.17
2018-05-15T07:49:49.223Z,2.40
2018-05-15T07:52:19.316Z,2.17
2018-05-15T07:54:49.081Z,2.40
2018-05-15T07:57:17.998Z,2.43
2018-05-15T07:59:47.166Z,2.60
2018-05-15T08:02:20.779Z,2.53
2018-05-15T08:04:51.379Z,2.43
2018-05-15T08:07:22.462Z,2.00
2018-05-15T08:09:52.092Z,3.43
2018-05-15T08:12:21.976Z,2.43
2018-05-15T08:14:50.936Z,2.27
2018-05-15T08:17:19.873Z,1.90
2018-05-15T08:19:49.220Z,3.00
2018-05-15T08:22:19.388Z,2.13
2018-05-15T08:24:59.921Z,1.80
2018-05-15T08:27:29.562Z,2.23
2018-05-15T08:29:58.731Z,2.83
2018-05-15T08:32:27.960Z,2.27
2018-05-15T08:35:00.343Z,3.23
2018-05-15T08:37:30.621Z,2.60
2018-05-15T08:40:11.128Z,3.17
2018-05-15T08:42:46.094Z,2.13
2018-05-15T08:45:18.978Z,2.07
2018-05-15T08:47:51.351Z,2.77
2018-05-15T08:50:33.959Z,3.50
2018-05-15T08:53:12.743Z,4.80
2018-05-15T08:55:54.996Z,3.27
2018-05-15T08:58:24.875Z,2.57
2018-05-15T09:00:55.114Z,2.77
2018-05-15T09:03:29.866Z,2.30
2018-05-15T09:06:08.632Z,2.90
2018-05-15T09:08:49.290Z,1.90
2018-05-15T09:11:19.121Z,3.93
2018-05-15T09:13:48.036Z,2.17
2018-05-15T09:16:30.558Z,2.43
2018-05-15T09:19:01.265Z,3.72
2018-05-15T09:21:31.751Z,2.72
2018-05-15T09:24:01.187Z,2.55
2018-05-15T09:26:30.216Z,3.10
2018-05-15T09:29:02.964Z,2.73
2018-05-15T09:31:34.209Z,2.23
2018-05-15T09:34:04.634Z,2.80
2018-05-15T09:36:48.247Z,2.50
2018-05-15T09:39:22.401Z,3.33
2018-05-15T09:41:51.835Z,3.40
2018-05-15T09:44:28.680Z,2.60
2018-05-15T09:46:58.078Z,2.67
2018-05-15T09:49:29.777Z,2.90
2018-05-15T09:51:59.758Z,2.60
2018-05-15T09:54:30.798Z,3.13
2018-05-15T09:57:02.363Z,2.63
2018-05-15T09:59:31.857Z,2.80
2018-05-15T10:02:03.514Z,2.90
2018-05-15T10:04:33.790Z,2.63
2018-05-15T10:07:03.535Z,3.60
2018-05-15T10:09:43.445Z,3.23
2018-05-15T10:12:22.200Z,3.80
2018-05-15T10:14:51.454Z,3.87
2018-05-15T10:17:24.964Z,3.37
2018-05-15T10:19:58.763Z,5.80
2018-05-15T10:22:41.572Z,5.07
2018-05-15T10:25:10.840Z,3.10
2018-05-15T10:27:43.613Z,4.17
2018-05-15T10:30:13.032Z,4.40
2018-05-15T10:32:42.028Z,3.40
2018-05-15T10:35:27.500Z,3.17
2018-05-15T10:38:00.207Z,4.53
2018-05-15T10:40:37.896Z,3.23
2018-05-15T10:43:09.931Z,3.13
2018-05-15T10:45:53.898Z,3.73
2018-05-15T10:48:35.922Z,3.10
2018-05-15T10:51:27.289Z,2.97
2018-05-15T10:54:32.533Z,3.50
2018-05-15T10:57:04.243Z,3.30
2018-05-15T10:59:46.642Z,3.97
2018-05-15T11:02:34.714Z,5.00
2018-05-15T11:05:20.019Z,3.07
2018-05-15T11:07:50.235Z,3.63
2018-05-15T11:10:20.568Z,4.00
2018-05-15T11:12:51.520Z,4.47
2018-05-15T11:15:26.719Z,3.53
2018-05-15T11:18:13.045Z,3.75
2018-05-15T11:20:52.504Z,3.42
2018-05-15T11:23:37.170Z,3.97
2018-05-15T11:26:13.407Z,3.30
2018-05-15T11:28:44.555Z,4.37
2018-05-15T11:31:14.924Z,3.93
2018-05-15T11:33:58.751Z,3.97
2018-05-15T11:36:35.609Z,5.85
2018-05-15T11:39:08.079Z,3.55
2018-05-15T11:41:38.116Z,4.07
2018-05-15T11:44:09.794Z,4.43
2018-05-15T11:46:40.792Z,3.62
2018-05-15T11:49:12.056Z,4.00
2018-05-15T11:51:41.718Z,6.05
2018-05-15T11:54:10.572Z,4.87
2018-05-15T11:56:40.815Z,7.25
2018-05-15T11:59:10.527Z,4.22
2018-05-15T12:01:41.227Z,4.57
2018-05-15T12:04:10.437Z,4.00
2018-05-15T12:06:43.793Z,4.18
2018-05-15T12:09:15.814Z,4.60
2018-05-15T12:11:45.240Z,4.65
2018-05-15T12:14:15.743Z,4.18
2018-05-15T12:16:50.204Z,4.47
2018-05-15T12:19:19.161Z,3.80
2018-05-15T12:21:51.295Z,3.92
2018-05-15T12:24:27.830Z,4.72
2018-05-15T12:27:11.900Z,3.78
2018-05-15T12:29:45.433Z,6.57
2018-05-15T12:32:16.631Z,6.75
2018-05-15T12:34:45.582Z,5.00
2018-05-15T12:37:15.907Z,4.78
2018-05-15T12:39:58.997Z,5.65
2018-05-15T12:42:32.588Z,4.97
2018-05-15T12:45:02.812Z,4.55
2018-05-15T12:47:42.770Z,5.60
2018-05-15T12:50:41.228Z,4.65
2018-05-15T12:53:19.833Z,4.22
2018-05-15T12:55:49.375Z,4.70
2018-05-15T12:58:19.036Z,5.32
2018-05-15T13:00:58.137Z,3.60
2018-05-15T13:03:36.815Z,4.85
2018-05-15T13:06:13.394Z,5.10
2018-05-15T13:08:44.781Z,4.80
2018-05-15T13:11:15.712Z,4.40
2018-05-15T13:13:53.500Z,6.37
2018-05-15T13:16:22.627Z,7.45
2018-05-15T13:18:55.346Z,4.60
2018-05-15T13:21:29.357Z,5.60
2018-05-15T13:24:00.943Z,6.30
2018-05-15T13:26:35.209Z,4.32
2018-05-15T13:29:07.212Z,4.55
2018-05-15T13:31:45.436Z,4.50
2018-05-15T13:34:19.504Z,4.47
2018-05-15T13:36:51.903Z,4.78
2018-05-15T13:39:21.577Z,4.47
2018-05-15T13:42:07.251Z,4.70
2018-05-15T13:44:52.511Z,6.60
2018-05-15T13:47:23.731Z,7.65
2018-05-15T13:49:56.511Z,5.25
2018-05-15T13:52:28.777Z,4.30
2018-05-15T13:54:57.909Z,4.45
2018-05-15T13:57:27.171Z,5.37
2018-05-15T14:02:40.205Z,4.82
2018-05-15T14:05:12.258Z,6.53
2018-05-15T14:07:45.398Z,6.40
2018-05-15T14:10:17.235Z,6.10
2018-05-15T14:12:53.641Z,4.65
2018-05-15T14:15:41.564Z,5.47
2018-05-15T14:18:12.995Z,6.40
2018-05-15T14:20:46.176Z,5.78
2018-05-15T14:26:34.777Z,4.95
2018-05-15T14:29:12.531Z,4.45
2018-05-15T14:31:47.523Z,4.93
2018-05-15T14:34:24.090Z,4.75
2018-05-15T14:37:12.198Z,4.20
2018-05-15T14:43:11.871Z,4.68
2018-05-15T14:45:46.710Z,4.30
2018-05-15T14:53:07.373Z,4.95
2018-05-15T14:55:36.432Z,5.97
2018-05-15T14:58:13.834Z,6.62
2018-05-15T15:01:06.615Z,7.00
2018-05-15T15:03:37.536Z,5.37
2018-05-15T15:06:21.273Z,4.95
2018-05-15T15:08:53.982Z,5.97
2018-05-15T15:11:25.299Z,5.93
2018-05-15T15:13:54.641Z,5.40
2018-05-15T15:16:42.166Z,7.45
2018-05-15T15:19:13.946Z,5.72
2018-05-15T15:21:55.731Z,5.43
2018-05-15T15:24:26.947Z,4.85
2018-05-15T15:27:07.452Z,7.03
2018-05-15T15:29:39.694Z,4.72
2018-05-15T15:32:17.040Z,4.62
2018-05-15T15:34:48.336Z,6.28
2018-05-15T15:37:19.654Z,5.05
2018-05-15T15:39:54.247Z,5.20
2018-05-15T15:42:37.803Z,4.95
2018-05-15T15:45:11.524Z,4.65
2018-05-15T15:47:42.720Z,5.15
2018-05-15T15:50:11.815Z,7.07
2018-05-15T15:52:43.251Z,4.60
2018-05-15T15:55:14.921Z,6.47
2018-05-15T15:57:48.852Z,5.60
2018-05-15T16:00:21.521Z,4.70
2018-05-15T16:02:50.546Z,4.40
2018-05-15T16:05:19.888Z,4.72
2018-05-15T16:07:48.806Z,5.70
2018-05-15T16:10:24.269Z,8.00
2018-05-15T16:12:58.768Z,4.68
2018-05-15T16:15:28.105Z,4.87
2018-05-15T16:17:58.211Z,5.72
2018-05-15T16:20:34.372Z,4.90
2018-05-15T16:23:10.554Z,5.57
2018-05-15T16:25:45.866Z,4.80
2018-05-15T16:28:17.642Z,5.37
2018-05-15T16:30:56.609Z,6.90
2018-05-15T16:33:36.372Z,5.10
2018-05-15T16:36:07.517Z,6.72
2018-05-15T16:38:37.229Z,4.45
2018-05-15T16:41:06.881Z,5.25
2018-05-15T16:43:36.745Z,6.37
2018-05-15T16:46:07.815Z,5.75
2018-05-15T16:48:36.762Z,5.57
2018-05-15T16:51:08.749Z,5.25
2018-05-15T16:53:43.797Z,6.00
2018-05-15T16:56:21.303Z,5.70
2018-05-15T16:58:50.251Z,8.68
2018-05-15T17:01:23.537Z,6.62
2018-05-15T17:03:52.756Z,5.47
2018-05-15T17:06:23.245Z,5.65
2018-05-15T17:08:53.555Z,7.80
2018-05-15T17:11:30.017Z,7.53
2018-05-15T17:13:59.636Z,8.10
2018-05-15T17:16:35.674Z,6.25
2018-05-15T17:19:05.103Z,6.03
2018-05-15T17:21:35.632Z,7.93
2018-05-15T17:24:06.397Z,6.12
2018-05-15T17:26:36.425Z,8.00
2018-05-15T17:29:05.750Z,6.10
2018-05-15T17:31:36.135Z,6.07
2018-05-15T17:34:05.661Z,6.62
2018-05-15T17:36:37.958Z,5.30
2018-05-15T17:39:09.875Z,5.95
2018-05-15T17:41:43.997Z,5.60
2018-05-15T17:44:21.987Z,5.05
2018-05-15T17:46:52.490Z,5.75
2018-05-15T17:49:22.298Z,6.72
2018-05-15T17:51:53.266Z,7.47
2018-05-15T17:54:22.244Z,6.37
2018-05-15T17:56:58.113Z,5.90
2018-05-15T17:59:27.542Z,5.50
2018-05-15T18:01:57.525Z,5.50
2018-05-15T18:04:30.129Z,5.85
2018-05-15T18:06:59.302Z,8.07
2018-05-15T18:09:29.761Z,7.55
2018-05-15T18:11:59.638Z,6.03
2018-05-15T18:14:29.651Z,5.90
2018-05-15T18:17:02.698Z,6.03
2018-05-15T18:23:29.288Z,5.70
2018-05-15T18:26:07.171Z,5.63
2018-05-15T18:28:38.088Z,5.57
2018-05-15T18:31:07.329Z,6.97
2018-05-15T18:33:40.084Z,7.20
2018-05-15T18:36:09.589Z,6.80
2018-05-15T18:38:49.426Z,6.23
2018-05-15T18:41:20.952Z,7.47
2018-05-15T18:43:52.417Z,5.93
2018-05-15T18:46:25.444Z,5.57
2018-05-15T18:48:54.651Z,8.77
2018-05-15T18:51:23.707Z,5.60
2018-05-15T18:53:53.608Z,5.43
2018-05-15T18:56:23.467Z,4.67
2018-05-15T18:58:55.919Z,6.10
2018-05-15T19:01:27.436Z,5.10
2018-05-15T19:04:05.163Z,5.10
2018-05-15T19:06:46.243Z,5.87
2018-05-15T19:09:16.627Z,6.33
2018-05-15T19:11:47.102Z,5.23
2018-05-15T19:14:16.383Z,5.23
2018-05-15T19:16:48.706Z,7.20
2018-05-15T19:19:17.771Z,5.30
2018-05-15T19:21:47.676Z,6.53
2018-05-15T19:24:21.407Z,5.60
2018-05-15T19:26:51.636Z,6.60
2018-05-15T19:29:20.693Z,5.00
2018-05-15T19:31:52.488Z,5.97
2018-05-15T19:34:24.578Z,5.77
2018-05-15T19:36:59.670Z,6.17
2018-05-15T19:39:32.689Z,5.43
2018-05-15T19:42:02.447Z,6.00
2018-05-15T19:44:37.374Z,6.77
2018-05-15T19:47:06.921Z,4.60
2018-05-15T19:49:35.967Z,5.40
2018-05-15T19:52:05.042Z,5.23
2018-05-15T19:54:34.217Z,5.67
2018-05-15T19:57:06.294Z,4.83
2018-05-15T19:59:36.306Z,6.07
2018-05-15T20:02:08.499Z,5.40
2018-05-15T20:04:40.729Z,4.67
2018-05-15T20:07:10.617Z,5.77
2018-05-15T20:09:45.332Z,5.07
2018-05-15T20:12:17.545Z,4.93
2018-05-15T20:14:47.237Z,6.17
2018-05-15T20:17:16.358Z,3.97
2018-05-15T20:19:46.098Z,4.23
2018-05-15T20:22:15.750Z,4.00
2018-05-15T20:24:47.371Z,3.80
2018-05-15T20:27:20.489Z,4.03
2018-05-15T20:30:10.617Z,4.13
2018-05-15T20:32:40.946Z,4.77
2018-05-15T20:35:10.691Z,5.03
2018-05-15T20:37:39.590Z,3.83
2018-05-15T20:40:10.456Z,3.57
2018-05-15T20:42:40.333Z,3.47
2018-05-15T20:45:09.945Z,5.47
2018-05-15T20:47:40.370Z,3.47
2018-05-15T20:50:12.966Z,3.50
2018-05-15T20:52:42.700Z,3.20
2018-05-15T20:55:13.302Z,4.30
2018-05-15T20:57:44.437Z,3.00
2018-05-15T21:00:19.398Z,4.07
2018-05-15T21:02:48.998Z,3.00
2018-05-15T21:05:20.636Z,3.47
2018-05-15T21:07:50.137Z,3.20
2018-05-15T21:10:19.719Z,3.70
2018-05-15T21:12:51.955Z,4.00
2018-05-15T21:15:21.923Z,3.50
2018-05-15T21:17:53.539Z,4.50
2018-05-15T21:20:23.830Z,3.00
2018-05-15T21:22:52.774Z,3.67
2018-05-15T21:25:24.688Z,3.10
2018-05-15T21:27:55.239Z,3.50
2018-05-15T21:30:26.365Z,3.07
2018-05-15T21:32:57.094Z,4.30
2018-05-15T21:35:27.092Z,5.10
2018-05-15T21:37:59.305Z,3.60
2018-05-15T21:40:28.874Z,4.30
2018-05-15T21:43:00.646Z,3.17
2018-05-15T21:45:30.787Z,3.73
2018-05-15T21:48:00.388Z,2.90
2018-05-15T21:50:29.519Z,3.20
2018-05-15T21:53:12.826Z,3.20
2018-05-15T21:55:41.767Z,2.80
2018-05-15T21:58:10.667Z,2.97
2018-05-15T22:01:03.703Z,2.83
2018-05-15T22:03:32.637Z,3.00
2018-05-15T22:06:01.588Z,2.97
2018-05-15T22:08:31.481Z,3.77
2018-05-15T22:11:07.207Z,3.43
2018-05-15T22:13:43.851Z,2.93
2018-05-15T22:16:20.829Z,2.83
2018-05-15T22:18:57.283Z,2.80
2018-05-15T22:21:34.689Z,3.00
2018-05-15T22:24:03.876Z,3.17
2018-05-15T22:26:33.485Z,3.07
2018-05-15T22:29:02.433Z,2.97
2018-05-15T22:31:31.383Z,3.13
2018-05-15T22:34:01.604Z,3.13
2018-05-15T22:36:30.906Z,2.87
2018-05-15T22:39:13.249Z,2.77
2018-05-15T22:41:43.110Z,3.30
2018-05-15T22:44:13.751Z,2.60
2018-05-15T22:46:43.777Z,3.70
2018-05-15T22:49:12.961Z,3.07
2018-05-15T22:51:46.052Z,3.20
2018-05-15T22:54:18.027Z,3.37
2018-05-15T22:56:47.694Z,3.00
2018-05-15T22:59:17.611Z,3.10
2018-05-15T23:01:49.790Z,3.00
2018-05-15T23:04:20.605Z,2.80
2018-05-15T23:06:51.655Z,3.00
2018-05-15T23:09:27.751Z,3.27
2018-05-15T23:11:58.404Z,2.80
2018-05-15T23:14:29.815Z,3.20
2018-05-15T23:16:58.770Z,3.27
2018-05-15T23:19:27.713Z,2.90
2018-05-15T23:21:57.425Z,4.10
2018-05-15T23:24:33.675Z,3.17
2018-05-15T23:27:15.044Z,3.27
2018-05-15T23:29:44.600Z,3.00
2018-05-15T23:32:14.458Z,4.37
2018-05-15T23:34:52.074Z,3.57
2018-05-15T23:37:21.444Z,3.00
2018-05-15T23:39:51.704Z,3.30
2018-05-15T23:42:21.223Z,2.83
2018-05-15T23:44:53.124Z,3.10
2018-05-15T23:47:22.817Z,3.40
2018-05-15T23:49:56.040Z,4.73
2018-05-15T23:52:24.999Z,2.77
2018-05-15T23:54:54.782Z,3.83
2018-05-15T23:57:27.729Z,3.23
2018-05-15T23:59:56.772Z,2.87
